Jackson Junction, Iowa
Current Conditions -  °F | °C
As of 10:35 AM on Thursday 23 Oct 2014 (Local Time) from KDEH Reporting Station
Haze Haze  
Wind Chill: 43°   Ceiling: 1400
Heat Index: 46°   Visibility: 5mi
Dew Point: 46°   Wind: 7mph
Humidity: 100%   Direction: 180°S
Pressure: 30.05"   Gusts: NA
Location:  43.0382°N, 92.0219°W
Report Text: KDEH 231535Z AUTO 18006KT 5SM BR OVC014 08/08 A3005 RMK AO2
Loading
Personal Weather Stations






























Interactive Weather Map
Tropical Storm Tracking
New forecast layout! Learn more

10-Day Weather Forecast

Advertisements
Track Severe Weather on mobile